Main page
METAR-TAF:

METAR-TAF

Airports :

Ingeniero Aeronáutico Ambrosio L.V. Taravella International Airport

Córdoba, Argentina

latitude: 31-19S, longitude: 064-13W, elevation: 484 m

Current weather observation

The report was made 30 minutes ago, at 23:00 UTC
Wind 8 kt from the Northeast
Temperature 26°C
Humidity 74%
Pressure 1011 hPa
Visibility 10 km or more
Scattered clouds at a height of 3000 ft
Scattered clouds at a height of 10000 ft

METAR: SACO 212300Z 04008KT 9999 SCT030 SCT100 26/21 Q1011 NOSIG

Time: 20:30 (23:30 UTC)

Forecast

The report was made 6 hours and 30 minutes ago, at 17:00 UTC
Forecast valid from 21 at 18 UTC to 22 at 18 UTC
Wind 10 kt from the North/Northeast with gusts up to 20 kt
Visibility 10 km or more
Scattered clouds at a height of 3000 ft
Few clouds at a height of 4000 ft, Towering cumulus.

TAF: SACO 211700Z 2118/2218 02010G20KT 9999 SCT030 TX35/2218Z TN222209Z FEW040TCU

Weather observations and forecasts of more than 4000 airports (METAR and TAF reports).

The available stations are represented by yellow and red dots on the map.

Hover mouse over dot to see the name of the station.

Then click to see weather observations and forecasts.

To change the map : click on the green buttons with a black cross to zoom in, on the green button with a dash to zoom out, or on the green arrows for adjacent maps.


METAR-TAF: